Time;durP1;ratioP1;P1;durP2;ratioP2;P2;SDS_P1;SDS_P2;PMS_P1;PMS_P2;Temp;Humidity;BMP_temperature;BMP_pressure;BME280_temperature;BME280_humidity;BME280_pressure;Samples;Min_cycle;Max_cycle;Signal;HPM_P1;HPM_P2
2022/04/17 00:01:53;;;;;;;7.22;3.65;;;;;;;5.26;70.76;101364.30;1888788;76;21040;-67
2022/04/17 00:04:22;;;;;;;7.35;3.77;;;;;;;5.22;71.67;101363.89;1889119;76;21006;-67
2022/04/17 00:06:51;;;;;;;5.50;3.25;;;;;;;5.17;71.49;101354.77;1889460;76;21068;-66
2022/04/17 00:09:19;;;;;;;5.40;2.22;;;;;;;5.17;71.26;101353.47;1857836;77;21325;-62
2022/04/17 00:11:48;;;;;;;6.33;3.70;;;;;;;5.13;71.48;101356.13;1889353;76;21049;-62
2022/04/17 00:14:17;;;;;;;5.65;2.80;;;;;;;5.08;72.06;101359.20;1889236;75;21469;-63
2022/04/17 00:16:45;;;;;;;3.30;1.57;;;;;;;5.01;72.18;101350.08;1889338;76;21079;-63
2022/04/17 00:19:14;;;;;;;4.45;3.25;;;;;;;4.98;72.38;101355.34;1889439;76;21061;-65
2022/04/17 00:21:43;;;;;;;4.70;2.27;;;;;;;4.98;72.24;101355.34;1889565;76;21057;-64
2022/04/17 00:24:12;;;;;;;6.00;3.15;;;;;;;4.97;71.92;101353.59;1889558;76;21135;-63
2022/04/17 00:26:41;;;;;;;11.12;4.90;;;;;;;4.98;72.09;101357.95;1889376;76;21461;-63
2022/04/17 00:29:10;;;;;;;3.55;2.45;;;;;;;4.98;72.51;101351.84;1889507;76;21065;-67
2022/04/17 00:31:38;;;;;;;6.05;3.20;;;;;;;4.97;72.67;101353.59;1889565;76;21086;-67
2022/04/17 00:34:07;;;;;;;8.18;2.67;;;;;;;4.92;72.73;101354.05;1889450;76;21042;-70
2022/04/17 00:36:36;;;;;;;8.10;4.15;;;;;;;4.90;72.83;101353.64;1889399;76;21077;-64
2022/04/17 00:39:04;;;;;;;7.67;2.33;;;;;;;4.84;73.22;101349.33;1889485;76;21610;-67
2022/04/17 00:41:33;;;;;;;9.80;1.87;;;;;;;4.83;73.42;101343.25;1889367;76;21062;-61
2022/04/17 00:44:02;;;;;;;3.37;1.72;;;;;;;4.84;73.31;101346.27;1889619;76;21124;-67
2022/04/17 00:46:30;;;;;;;5.28;2.25;;;;;;;4.84;73.64;101349.33;1889577;76;21097;-60
2022/04/17 00:48:59;;;;;;;12.20;4.85;;;;;;;4.82;73.99;101344.11;1889477;76;21120;-65
2022/04/17 00:51:28;;;;;;;9.53;3.80;;;;;;;4.83;74.25;101346.27;1883666;76;21123;-62
2022/04/17 00:56:28;;;;;;;6.05;3.67;;;;;;;4.83;74.49;101352.80;1868774;75;21070;-67
2022/04/17 00:58:57;;;;;;;7.40;3.05;;;;;;;4.81;74.73;101354.14;1819967;79;21452;-63
2022/04/17 01:01:27;;;;;;;5.50;3.12;;;;;;;4.77;74.73;101352.39;1897538;75;21013;-65
2022/04/17 01:03:56;;;;;;;3.12;2.62;;;;;;;4.69;74.54;101347.67;1899526;75;21123;-63
2022/04/17 01:06:25;;;;;;;4.72;3.00;;;;;;;4.66;74.56;101355.95;1899534;75;21479;-61
2022/04/17 01:08:55;;;;;;;7.70;4.78;;;;;;;4.64;74.69;101354.64;1899332;75;21488;-64
2022/04/17 01:11:24;;;;;;;9.63;3.20;;;;;;;4.60;74.57;101358.14;1866151;75;21550;-65
2022/04/17 01:13:55;;;;;;;18.02;3.62;;;;;;;4.57;74.84;101355.09;1882958;76;21471;-64
2022/04/17 01:16:24;;;;;;;3.22;2.92;;;;;;;4.54;74.81;101358.19;1841808;77;21034;-64
2022/04/17 01:19:03;;;;;;;5.15;2.02;;;;;;;4.49;74.93;101361.24;1852127;77;21103;-64
2022/04/17 01:21:32;;;;;;;4.97;2.20;;;;;;;4.45;74.82;101364.30;1843364;76;21168;-64
2022/04/17 01:26:57;;;;;;;17.77;4.55;;;;;;;4.37;75.11;101353.00;1820978;78;21114;-62
2022/04/17 01:29:35;;;;;;;2.55;1.45;;;;;;;4.31;75.23;101348.69;1862042;76;21436;-61
2022/04/17 01:32:07;;;;;;;11.45;4.08;;;;;;;4.25;75.10;101346.97;1817471;79;21088;-62
2022/04/17 01:34:37;;;;;;;2.05;1.72;;;;;;;4.22;75.24;101340.48;1842488;77;21005;-61
2022/04/17 01:37:07;;;;;;;10.60;4.65;;;;;;;4.19;75.51;101339.63;1851856;76;21054;-61
2022/04/17 01:39:36;;;;;;;4.72;2.90;;;;;;;4.18;75.57;101332.22;1857757;77;21044;-63
2022/04/17 01:42:06;;;;;;;8.68;2.72;;;;;;;4.17;75.14;101334.41;1821389;78;21082;-64
2022/04/17 01:44:36;;;;;;;6.85;2.65;;;;;;;4.19;74.80;101336.57;1867490;77;21037;-62
2022/04/17 01:47:06;;;;;;;5.15;4.10;;;;;;;4.17;74.51;101334.41;1860745;77;21034;-66
2022/04/17 01:49:36;;;;;;;6.70;5.97;;;;;;;4.15;74.29;101337.45;1863849;76;21088;-64
2022/04/17 01:52:06;;;;;;;8.78;5.83;;;;;;;4.13;74.12;101340.51;1887688;76;21131;-64
2022/04/17 01:54:35;;;;;;;11.35;7.78;;;;;;;4.12;73.98;101340.06;1887731;76;21754;-66
2022/04/17 01:57:04;;;;;;;5.08;3.70;;;;;;;4.11;73.81;101333.10;1898856;75;21037;-64
2022/04/17 01:59:32;;;;;;;6.87;4.33;;;;;;;4.10;73.67;101333.98;1899856;75;21107;-64
2022/04/17 02:02:01;;;;;;;9.40;4.70;;;;;;;4.08;73.66;101333.13;1899780;75;21041;-64
2022/04/17 02:04:35;;;;;;;9.03;4.67;;;;;;;4.08;74.34;101333.55;1899756;75;21065;-64
2022/04/17 02:07:00;;;;;;;7.72;4.05;;;;;;;4.06;74.01;101330.97;1899297;75;21092;-64
2022/04/17 02:09:29;;;;;;;3.33;2.33;;;;;;;4.04;73.80;101326.20;1899754;75;21013;-64
2022/04/17 02:11:58;;;;;;;4.97;3.92;;;;;;;4.03;73.65;101329.66;1908819;75;21029;-64
2022/04/17 02:14:27;;;;;;;4.17;2.35;;;;;;;4.01;73.96;101320.98;1908911;75;21512;-65
2022/04/17 02:16:55;;;;;;;2.87;2.58;;;;;;;3.99;74.04;101321.43;1908850;75;21097;-64
2022/04/17 02:19:24;;;;;;;5.35;3.98;;;;;;;3.98;73.88;101323.59;1908859;75;21090;-64
2022/04/17 02:21:53;;;;;;;8.80;3.22;;;;;;;3.97;73.69;101321.87;1911104;75;21015;-64
2022/04/17 02:24:21;;;;;;;8.68;3.30;;;;;;;3.95;73.71;101315.80;1920979;75;21128;-64
2022/04/17 02:26:50;;;;;;;6.50;3.40;;;;;;;3.93;74.14;101320.12;1921005;75;21101;-65
2022/04/17 02:29:18;;;;;;;4.45;3.30;;;;;;;3.92;74.43;101330.12;1920955;75;21049;-65
2022/04/17 02:31:49;;;;;;;4.37;4.00;;;;;;;3.92;74.09;101332.73;1845929;76;21185;-65
2022/04/17 02:34:17;;;;;;;3.83;3.50;;;;;;;3.92;73.91;101344.45;1847588;78;21151;-65
2022/04/17 02:36:46;;;;;;;7.00;4.92;;;;;;;3.93;73.69;101342.27;1853127;75;21043;-64
2022/04/17 02:39:14;;;;;;;36.83;14.73;;;;;;;3.92;73.53;101341.85;1889329;76;21007;-63
2022/04/17 02:41:43;;;;;;;14.28;7.47;;;;;;;3.93;73.82;101334.45;1887870;76;21073;-65
2022/04/17 02:44:11;;;;;;;10.15;4.80;;;;;;;3.92;73.92;101340.55;1895726;76;21042;-63
2022/04/17 02:49:27;;;;;;;2.95;2.47;;;;;;;3.94;73.74;101333.59;1895859;76;21627;-63
2022/04/17 02:51:55;;;;;;;7.53;4.03;;;;;;;3.97;73.54;101340.11;1895702;76;21114;-63
2022/04/17 02:54:25;;;;;;;9.35;4.33;;;;;;;4.00;73.41;101345.30;1894556;76;21086;-63
2022/04/17 02:56:53;;;;;;;6.67;3.98;;;;;;;4.06;73.34;101340.95;1891668;76;21626;-63
2022/04/17 02:59:22;;;;;;;8.18;3.72;;;;;;;4.12;73.18;101340.51;1891653;76;21042;-64
2022/04/17 03:07:24;;;;;;;9.18;3.87;;;;;;;4.28;73.11;101350.43;1894253;75;21077;-62
2022/04/17 03:09:53;;;;;;;5.97;3.35;;;;;;;4.35;73.06;101356.95;1898340;75;21054;-64
2022/04/17 03:12:21;;;;;;;6.92;4.65;;;;;;;4.41;72.98;101356.06;1898473;75;21112;-64
2022/04/17 03:14:50;;;;;;;7.40;3.75;;;;;;;4.49;73.01;101364.70;1896119;75;21149;-63
2022/04/17 03:17:19;;;;;;;17.23;3.62;;;;;;;4.50;72.86;101358.63;1895433;75;21078;-65
2022/04/17 03:19:47;;;;;;;9.60;4.80;;;;;;;4.51;72.80;101361.66;1898312;75;21046;-63
2022/04/17 03:22:16;;;;;;;30.50;4.53;;;;;;;4.51;73.03;101357.73;1892367;74;21010;-70
2022/04/17 03:24:45;;;;;;;7.17;4.15;;;;;;;4.52;73.25;101355.98;1893513;75;21129;-66
2022/04/17 03:27:13;;;;;;;8.65;4.47;;;;;;;4.51;73.26;101351.22;1891754;76;21042;-66
2022/04/17 03:29:42;;;;;;;5.03;2.77;;;;;;;4.51;73.30;101348.61;1891637;76;21128;-67
2022/04/17 03:32:11;;;;;;;7.30;4.50;;;;;;;4.55;73.27;101341.20;1891377;75;21078;-66
2022/04/17 03:34:40;;;;;;;8.95;4.45;;;;;;;4.64;73.05;101349.42;1891609;76;21592;-68
2022/04/17 03:37:10;;;;;;;9.08;4.25;;;;;;;4.72;72.97;101350.69;1891603;76;21099;-67
2022/04/17 03:39:38;;;;;;;8.08;3.30;;;;;;;4.82;72.89;101353.69;1891762;76;21543;-67
2022/04/17 03:42:07;;;;;;;5.17;3.90;;;;;;;4.93;72.75;101353.19;1892595;75;21034;-66
2022/04/17 03:44:36;;;;;;;9.83;3.33;;;;;;;5.06;72.57;101346.59;1896260;75;21030;-64
2022/04/17 03:47:06;;;;;;;10.60;5.60;;;;;;;5.19;72.40;101351.71;1892556;76;21120;-65
2022/04/17 03:49:35;;;;;;;7.50;6.65;;;;;;;5.34;72.25;101348.12;1891891;76;21588;-65
2022/04/17 03:52:04;;;;;;;6.10;4.30;;;;;;;5.52;72.08;101354.09;1892224;75;21524;-66
2022/04/17 03:54:33;;;;;;;8.65;5.30;;;;;;;5.70;71.93;101350.02;1892261;76;21116;-65
2022/04/17 03:57:01;;;;;;;10.28;4.00;;;;;;;5.88;71.76;101349.40;1892438;75;21113;-67
2022/04/17 03:59:36;;;;;;;12.65;4.65;;;;;;;6.03;71.55;101346.68;1897111;75;21042;-70
2022/04/17 04:02:01;;;;;;;11.88;5.75;;;;;;;6.17;71.39;101340.84;1890081;75;21181;-68
2022/04/17 04:04:30;;;;;;;5.00;4.00;;;;;;;6.26;71.36;101342.94;1891667;75;21622;-67
2022/04/17 04:06:58;;;;;;;7.37;4.20;;;;;;;6.29;71.37;101345.50;1892941;75;21177;-68
2022/04/17 04:09:27;;;;;;;9.38;4.90;;;;;;;6.35;71.43;101347.61;1892754;75;21227;-66
2022/04/17 04:11:56;;;;;;;11.20;4.42;;;;;;;6.48;71.39;101348.78;1892143;75;21043;-66
2022/04/17 04:14:24;;;;;;;11.00;6.15;;;;;;;6.64;71.36;101346.81;1892673;74;21512;-67
2022/04/17 04:16:53;;;;;;;15.23;6.22;;;;;;;6.82;71.37;101346.57;1891818;75;21184;-68
2022/04/17 04:19:22;;;;;;;12.68;7.05;;;;;;;6.95;71.38;101344.65;1892064;75;21166;-68
2022/04/17 04:21:51;;;;;;;8.10;4.80;;;;;;;7.03;71.33;101344.11;1893198;75;21161;-68
2022/04/17 04:24:20;;;;;;;6.67;3.70;;;;;;;7.16;71.31;101343.48;1892715;75;21097;-66
2022/04/17 04:29:19;;;;;;;10.90;5.42;;;;;;;7.79;71.42;101338.97;1835133;75;21147;-69
2022/04/17 04:31:47;;;;;;;15.15;5.72;;;;;;;8.20;71.36;101341.25;1889971;75;21509;-69
2022/04/17 04:34:16;;;;;;;5.97;4.20;;;;;;;8.53;71.16;101343.67;1885252;76;21043;-68
2022/04/17 04:36:45;;;;;;;17.12;4.72;;;;;;;8.72;70.58;101341.51;1885298;76;21125;-68
2022/04/17 04:39:13;;;;;;;18.67;5.92;;;;;;;8.91;70.36;101342.41;1884101;76;21015;-69
2022/04/17 04:41:42;;;;;;;8.98;4.28;;;;;;;9.17;70.35;101342.70;1885267;76;21101;-68
2022/04/17 04:44:11;;;;;;;6.33;3.30;;;;;;;9.39;70.15;101335.63;1885345;76;21105;-69
2022/04/17 04:46:39;;;;;;;16.30;5.00;;;;;;;9.60;70.00;101329.80;1885351;76;21047;-69
2022/04/17 04:51:54;;;;;;;10.95;3.80;;;;;;;9.98;69.70;101330.58;1885177;76;21106;-70
2022/04/17 04:54:23;;;;;;;16.10;5.62;;;;;;;10.26;69.63;101328.49;1885486;75;21513;-69
2022/04/17 04:56:52;;;;;;;8.48;4.20;;;;;;;10.54;69.71;101327.73;1885342;76;21159;-68
2022/04/17 04:59:21;;;;;;;8.03;3.62;;;;;;;10.74;69.54;101327.98;1885245;76;21019;-68
2022/04/17 05:01:51;;;;;;;9.33;3.65;;;;;;;11.06;69.23;101322.17;1885281;76;21493;-68
2022/04/17 05:04:20;;;;;;;10.30;4.85;;;;;;;11.40;69.24;101325.05;1878563;76;21455;-69
2022/04/17 05:06:49;;;;;;;10.50;4.85;;;;;;;11.92;69.13;101315.37;1824400;79;21559;-71
2022/04/17 05:09:17;;;;;;;9.70;4.37;;;;;;;12.54;68.84;101311.78;1856415;77;21041;-69
2022/04/17 05:11:47;;;;;;;12.78;4.47;;;;;;;13.20;68.50;101310.97;1846249;77;21071;-71
2022/04/17 05:14:19;;;;;;;12.37;4.62;;;;;;;13.85;68.06;101308.70;1841030;78;21517;-71
2022/04/17 05:16:46;;;;;;;13.78;3.87;;;;;;;14.04;67.09;101313.18;1840661;78;21059;-70
2022/04/17 05:19:24;;;;;;;10.93;4.35;;;;;;;14.24;66.49;101305.20;1840928;78;21228;-69
2022/04/17 05:21:57;;;;;;;11.35;5.28;;;;;;;14.63;65.91;101300.34;1797375;79;21572;-69
2022/04/17 05:24:22;;;;;;;11.73;4.45;;;;;;;15.05;65.37;101308.50;1840438;78;21047;-68
2022/04/17 05:26:51;;;;;;;12.58;4.67;;;;;;;15.42;65.14;101301.37;1841020;78;21091;-68
2022/04/17 05:29:20;;;;;;;12.53;5.40;;;;;;;15.69;65.01;101303.53;1842023;77;21121;-67
2022/04/17 05:31:49;;;;;;;33.23;9.98;;;;;;;15.83;64.33;101294.42;1795963;78;21098;-67
2022/04/17 05:34:17;;;;;;;20.97;7.78;;;;;;;15.68;62.55;101287.23;1826862;78;21062;-67
2022/04/17 05:36:46;;;;;;;22.67;7.37;;;;;;;15.71;62.28;101291.03;1826696;78;21062;-67
2022/04/17 05:39:15;;;;;;;19.57;7.15;;;;;;;15.77;61.93;101296.09;1826718;78;21168;-67
2022/04/17 05:41:44;;;;;;;5.60;2.75;;;;;;;15.77;61.43;101292.10;1826710;78;21133;-68
2022/04/17 05:44:14;;;;;;;8.55;3.67;;;;;;;15.85;61.23;101285.53;1826730;78;21665;-67
2022/04/17 05:46:43;;;;;;;10.85;3.50;;;;;;;16.00;60.71;101293.53;1826845;78;21074;-68
2022/04/17 05:49:12;;;;;;;7.12;4.03;;;;;;;16.26;60.80;101288.63;1826853;78;21132;-66
2022/04/17 05:51:41;;;;;;;7.25;3.45;;;;;;;16.58;60.52;101292.19;1826736;78;21023;-66
2022/04/17 05:54:09;;;;;;;10.43;4.45;;;;;;;16.79;60.06;101290.12;1826777;78;21055;-67
2022/04/17 05:56:38;;;;;;;14.85;4.37;;;;;;;17.09;59.70;101285.83;1826638;78;21150;-67
2022/04/17 05:59:10;;;;;;;11.45;4.08;;;;;;;17.29;59.54;101285.53;1826627;78;21118;-67
2022/04/17 06:01:39;;;;;;;9.40;4.58;;;;;;;17.49;58.98;101284.84;1825782;78;21477;-66
2022/04/17 06:04:07;;;;;;;13.32;5.30;;;;;;;17.73;58.57;101282.02;1826670;78;21059;-66
2022/04/17 06:06:36;;;;;;;8.30;3.27;;;;;;;17.97;57.87;101288.66;1795965;80;21078;-68
2022/04/17 06:09:04;;;;;;;11.85;5.37;;;;;;;18.16;57.19;101279.89;1826512;78;21054;-71
2022/04/17 06:11:34;;;;;;;13.78;5.87;;;;;;;18.17;56.77;101284.28;1826714;78;21062;-68
2022/04/17 06:14:03;;;;;;;20.00;5.90;;;;;;;18.25;54.87;101274.47;1826645;78;21497;-68
2022/04/17 06:16:32;;;;;;;23.12;9.80;;;;;;;18.27;55.05;101272.55;1801731;78;21074;-70
2022/04/17 06:19:01;;;;;;;25.15;7.75;;;;;;;18.32;54.51;101270.47;1826727;78;21054;-69
2022/04/17 06:21:29;;;;;;;34.27;11.88;;;;;;;18.31;53.69;101270.07;1826676;78;21098;-71
2022/04/17 06:23:58;;;;;;;29.82;10.50;;;;;;;18.32;53.22;101275.80;1826722;78;21136;-71
2022/04/17 06:26:26;;;;;;;32.88;11.40;;;;;;;18.51;53.62;101277.66;1826588;78;21054;-70
2022/04/17 06:28:55;;;;;;;12.28;7.05;;;;;;;18.87;53.81;101276.28;1826770;78;21138;-68
2022/04/17 06:31:24;;;;;;;18.57;6.58;;;;;;;19.25;53.67;101278.69;1826943;78;21180;-68
2022/04/17 06:33:52;;;;;;;16.40;5.90;;;;;;;19.46;53.33;101276.41;1851892;75;21055;-70
2022/04/17 06:36:21;;;;;;;14.50;5.62;;;;;;;19.79;53.09;101276.39;1876911;76;21113;-69
2022/04/17 06:38:49;;;;;;;10.23;4.90;;;;;;;20.07;52.82;101274.00;1886165;76;21050;-69
2022/04/17 06:41:18;;;;;;;13.65;5.45;;;;;;;20.54;52.70;101268.87;1886114;76;21039;-68
2022/04/17 06:43:47;;;;;;;14.35;6.10;;;;;;;20.81;51.92;101272.72;1886146;76;21117;-69
2022/04/17 06:46:15;;;;;;;16.30;6.00;;;;;;;21.06;51.27;101275.74;1886199;76;21155;-67
2022/04/17 06:48:44;;;;;;;17.30;5.62;;;;;;;21.48;51.06;101273.50;1886093;76;21070;-67
2022/04/17 06:51:12;;;;;;;11.48;5.42;;;;;;;21.72;50.06;101269.90;1855574;76;21046;-69
2022/04/17 06:53:41;;;;;;;14.95;5.87;;;;;;;21.78;49.93;101255.55;1891765;76;21046;-67
2022/04/17 06:56:12;;;;;;;10.13;4.37;;;;;;;21.84;49.46;101243.48;1891772;76;21019;-67
2022/04/17 06:58:40;;;;;;;8.78;4.08;;;;;;;21.96;48.86;101253.72;1891684;76;21047;-67
2022/04/17 07:01:09;;;;;;;11.25;4.45;;;;;;;22.03;48.23;101262.14;1891839;75;21014;-69
2022/04/17 07:03:38;;;;;;;9.08;4.17;;;;;;;22.19;48.21;101265.31;1891814;76;21075;-69
2022/04/17 07:06:07;;;;;;;17.35;5.05;;;;;;;22.21;47.28;101272.74;1891731;76;21074;-69
2022/04/17 07:08:36;;;;;;;12.93;4.92;;;;;;;22.19;47.17;101278.72;1891653;76;21124;-68
2022/04/17 07:11:05;;;;;;;9.85;4.75;;;;;;;22.07;47.26;101278.34;1891677;76;21113;-68
2022/04/17 07:13:33;;;;;;;12.37;4.67;;;;;;;22.08;47.05;101269.34;1891804;75;21505;-68
2022/04/17 07:16:04;;;;;;;10.68;4.35;;;;;;;22.23;46.77;101276.16;1896052;75;21166;-69
2022/04/17 07:18:33;;;;;;;7.53;3.77;;;;;;;22.42;46.52;101268.00;1898799;75;21425;-70
2022/04/17 07:21:03;;;;;;;7.47;3.85;;;;;;;22.24;46.41;101268.45;1898634;75;21038;-69
2022/04/17 07:23:31;;;;;;;9.25;4.60;;;;;;;21.81;46.43;101263.82;1892614;75;21035;-68
2022/04/17 07:26:00;;;;;;;6.12;2.80;;;;;;;21.79;46.52;101259.07;1891504;76;21034;-67
2022/04/17 07:28:28;;;;;;;8.65;3.80;;;;;;;21.65;46.31;101253.92;1891760;75;21110;-66
2022/04/17 07:30:57;;;;;;;7.33;2.90;;;;;;;21.42;46.42;101251.67;1891632;76;21117;-66
2022/04/17 07:33:26;;;;;;;4.03;1.75;;;;;;;21.44;46.38;101254.59;1895715;75;21115;-66
2022/04/17 07:35:55;;;;;;;11.28;2.90;;;;;;;21.27;46.32;101248.34;1898212;75;21093;-69
2022/04/17 07:38:23;;;;;;;9.50;2.60;;;;;;;20.94;46.20;101259.28;1898160;75;21050;-74
2022/04/17 07:40:52;;;;;;;4.25;1.92;;;;;;;20.72;46.44;101258.19;1898256;75;21105;-70
2022/04/17 07:43:21;;;;;;;6.78;2.92;;;;;;;20.87;46.41;101259.37;1898301;75;21113;-70
2022/04/17 07:45:50;;;;;;;3.95;2.00;;;;;;;20.95;46.26;101263.19;1898218;75;21112;-67
2022/04/17 07:48:19;;;;;;;3.10;1.82;;;;;;;20.93;46.20;101264.25;1876270;75;21448;-66
2022/04/17 07:50:52;;;;;;;7.97;2.20;;;;;;;20.77;46.36;101260.05;1867595;77;21046;-70
2022/04/17 07:53:18;;;;;;;2.83;1.62;;;;;;;20.48;46.54;101254.61;1866815;77;21137;-69
2022/04/17 07:55:47;;;;;;;4.47;2.02;;;;;;;20.18;46.64;101245.17;1826612;78;21101;-70
2022/04/17 07:58:34;;;;;;;4.05;1.82;;;;;;;20.00;46.51;101228.12;1826787;78;21574;-69
2022/04/17 08:00:58;;;;;;;2.30;1.62;;;;;;;19.98;46.74;101220.70;1824865;78;21059;-68
2022/04/17 08:03:46;;;;;;;5.95;1.92;;;;;;;20.00;46.63;101206.73;1826585;78;21078;-68
2022/04/17 08:06:07;;;;;;;5.10;2.02;;;;;;;20.00;46.54;101195.20;1824759;78;21168;-70
2022/04/17 08:08:37;;;;;;;3.67;1.82;;;;;;;19.83;46.55;101189.73;1820565;79;21179;-69
2022/04/17 08:11:06;;;;;;;3.17;1.72;;;;;;;19.65;46.60;101186.01;1820703;79;21562;-69
2022/04/17 08:13:36;;;;;;;4.87;2.60;;;;;;;19.66;46.79;101188.19;1820595;79;21066;-70
2022/04/17 08:16:06;;;;;;;8.13;3.17;;;;;;;19.65;46.91;101183.34;1826571;78;21595;-68
2022/04/17 08:18:36;;;;;;;6.60;3.20;;;;;;;19.69;47.03;101190.66;1826774;78;21125;-67
2022/04/17 08:21:06;;;;;;;6.53;2.87;;;;;;;19.62;47.13;101192.92;1826665;78;21062;-68
2022/04/17 08:23:37;;;;;;;10.72;2.85;;;;;;;19.59;47.26;101183.78;1826764;78;21059;-67
2022/04/17 08:26:08;;;;;;;9.58;2.33;;;;;;;19.55;47.31;101174.73;1826684;78;21137;-65
2022/04/17 08:28:36;;;;;;;4.70;2.45;;;;;;;19.38;47.38;101184.77;1826560;78;21617;-65
2022/04/17 08:31:06;;;;;;;8.70;2.20;;;;;;;19.36;47.49;101181.84;1826576;78;21062;-68
2022/04/17 08:33:35;;;;;;;7.42;2.25;;;;;;;19.45;47.62;101181.20;1826668;78;21581;-67
2022/04/17 08:36:04;;;;;;;9.55;2.98;;;;;;;19.70;47.60;101171.47;1845557;76;21197;-67
2022/04/17 08:38:34;;;;;;;8.30;2.70;;;;;;;19.73;47.53;101164.61;1891629;76;21137;-67
2022/04/17 08:41:05;;;;;;;8.00;2.65;;;;;;;19.80;47.42;101165.89;1891505;76;21115;-67
2022/04/17 08:43:34;;;;;;;5.55;2.70;;;;;;;19.81;47.13;101168.95;1891639;76;21034;-68
2022/04/17 08:46:03;;;;;;;8.08;2.98;;;;;;;19.82;47.01;101170.64;1891682;76;21195;-68
2022/04/17 08:48:35;;;;;;;11.35;3.42;;;;;;;19.91;46.84;101164.64;1891689;76;21071;-68
2022/04/17 08:51:08;;;;;;;5.28;2.30;;;;;;;19.98;46.82;101155.22;1891915;75;21037;-67
2022/04/17 08:53:39;;;;;;;6.03;2.23;;;;;;;19.95;46.78;101139.39;1892550;76;21046;-67
2022/04/17 08:56:07;;;;;;;5.90;3.10;;;;;;;19.89;46.71;101141.67;1892341;76;21101;-67
2022/04/17 08:58:36;;;;;;;5.53;2.37;;;;;;;19.95;46.74;101146.07;1892388;76;21140;-66
2022/04/17 09:01:05;;;;;;;8.05;2.75;;;;;;;20.14;46.72;101148.75;1893350;75;21123;-70
2022/04/17 09:03:34;;;;;;;4.55;2.35;;;;;;;20.19;46.76;101138.58;1891756;76;21046;-70
2022/04/17 09:06:02;;;;;;;6.55;2.55;;;;;;;20.12;46.76;101133.30;1891594;76;21058;-68
2022/04/17 09:08:31;;;;;;;5.75;2.27;;;;;;;20.17;46.77;101136.50;1891777;76;21058;-68
2022/04/17 09:11:01;;;;;;;15.78;2.20;;;;;;;20.13;46.57;101136.36;1891930;75;21089;-69
2022/04/17 09:13:32;;;;;;;18.07;2.67;;;;;;;19.98;46.67;101134.33;1891579;75;21566;-68
2022/04/17 09:16:03;;;;;;;5.33;2.17;;;;;;;20.01;46.80;101137.63;1895280;75;21042;-68
2022/04/17 09:18:33;;;;;;;5.58;2.33;;;;;;;20.17;46.68;101136.01;1891658;75;21110;-68
2022/04/17 09:21:02;;;;;;;7.28;2.08;;;;;;;20.30;46.58;101147.16;1891732;76;21582;-67
2022/04/17 09:23:40;;;;;;;11.48;3.30;;;;;;;20.49;46.49;101131.92;1892093;75;21104;-67
2022/04/17 09:26:09;;;;;;;8.98;2.67;;;;;;;20.54;46.38;101134.63;1891761;76;21046;-67
2022/04/17 09:28:39;;;;;;;5.78;2.05;;;;;;;20.47;46.37;101144.56;1891775;76;21062;-66
2022/04/17 09:31:12;;;;;;;4.42;1.95;;;;;;;20.38;46.41;101143.41;1891613;76;21516;-67
2022/04/17 09:33:49;;;;;;;6.90;2.12;;;;;;;20.42;46.41;101125.70;1896875;75;21030;-66
2022/04/17 09:36:13;;;;;;;7.10;2.33;;;;;;;20.49;46.38;101123.90;1897147;75;21090;-66
2022/04/17 09:38:42;;;;;;;5.97;1.85;;;;;;;20.47;46.53;101129.84;1898508;75;21026;-67
2022/04/17 09:41:14;;;;;;;4.25;1.82;;;;;;;20.39;46.37;101131.27;1888413;75;21472;-68
2022/04/17 09:43:47;;;;;;;4.65;2.00;;;;;;;20.35;46.38;101133.81;1867610;77;21813;-67
2022/04/17 09:46:16;;;;;;;8.60;2.25;;;;;;;20.35;46.29;101141.83;1867764;77;21040;-69
2022/04/17 09:48:45;;;;;;;3.22;1.67;;;;;;;20.43;46.28;101151.47;1867533;77;21125;-68
2022/04/17 09:51:31;;;;;;;6.87;1.52;;;;;;;20.46;46.41;101140.20;1869713;75;21477;-67
2022/04/17 09:54:08;;;;;;;5.60;1.80;;;;;;;20.48;46.57;101128.41;1836851;78;21148;-68
2022/04/17 09:56:40;;;;;;;2.90;1.30;;;;;;;20.47;46.59;101128.52;1837039;78;21053;-72
2022/04/17 09:59:17;;;;;;;4.90;1.50;;;;;;;20.41;46.60;101129.33;1836863;78;21057;-71
2022/04/17 10:01:51;;;;;;;1.80;1.32;;;;;;;20.37;46.50;101129.20;1843012;76;21172;-71
2022/04/17 10:04:22;;;;;;;5.67;1.77;;;;;;;20.27;46.38;101127.31;1867428;77;21058;-67
2022/04/17 10:06:52;;;;;;;4.75;1.90;;;;;;;20.23;46.44;101125.34;1867596;77;21051;-66
2022/04/17 10:09:21;;;;;;;7.80;2.33;;;;;;;20.15;46.36;101125.07;1867480;77;21511;-66
2022/04/17 10:11:51;;;;;;;4.55;2.22;;;;;;;20.08;46.21;101122.47;1867515;77;21472;-67
2022/04/17 10:14:20;;;;;;;4.00;1.80;;;;;;;20.08;46.06;101109.95;1878395;75;21067;-68
2022/04/17 10:16:50;;;;;;;3.85;1.50;;;;;;;20.05;45.92;101111.05;1894955;75;21054;-67
2022/04/17 10:19:21;;;;;;;4.50;1.87;;;;;;;20.02;45.88;101102.39;1894836;76;21145;-67
2022/04/17 10:21:51;;;;;;;9.75;1.65;;;;;;;20.08;45.85;101090.39;1894843;76;21550;-67
2022/04/17 10:24:24;;;;;;;10.40;2.52;;;;;;;20.14;45.81;101093.48;1896724;75;21448;-68
2022/04/17 10:26:54;;;;;;;;;;;;;;;20.15;45.58;101084.97;1904061;75;21038;-67
2022/04/17 10:29:31;;;;;;;8.10;2.58;;;;;;;20.32;45.52;101082.38;1900918;75;20377;-67
2022/04/17 10:32:08;;;;;;;2.58;1.85;;;;;;;20.37;45.15;101079.72;1901122;75;21051;-67
2022/04/17 10:35:09;;;;;;;4.65;2.00;;;;;;;20.77;45.20;101080.75;1889822;75;21038;-67
2022/04/17 10:37:52;;;;;;;4.75;1.85;;;;;;;21.13;44.46;101085.55;1892945;75;21082;-69
2022/04/17 10:40:21;;;;;;;;;;;;;;;21.25;43.68;101092.25;1895118;76;21128;-66
2022/04/17 10:42:58;;;;;;;3.72;1.85;;;;;;;21.20;43.32;101090.80;1892288;76;20374;-68
2022/04/17 10:45:31;;;;;;;4.35;1.90;;;;;;;21.21;43.58;101099.70;1896675;75;21118;-66
2022/04/17 10:48:11;;;;;;;6.60;2.62;;;;;;;21.37;43.52;101101.52;1898296;75;21120;-66
2022/04/17 10:50:44;;;;;;;5.15;1.92;;;;;;;21.63;43.53;101105.81;1894940;75;21050;-70
2022/04/17 10:53:27;;;;;;;5.42;2.27;;;;;;;21.76;43.41;101115.45;1898833;75;21484;-69
2022/04/17 10:56:11;;;;;;;3.25;1.75;;;;;;;21.81;43.14;101111.04;1897748;75;21584;-69
2022/04/17 10:58:44;;;;;;;8.13;2.00;;;;;;;21.84;43.02;101121.52;1896596;74;21437;-69
2022/04/17 11:01:13;;;;;;;3.97;1.50;;;;;;;21.97;43.13;101118.70;1892086;75;21494;-68
2022/04/17 11:03:53;;;;;;;3.20;1.72;;;;;;;22.24;42.63;101116.06;1891801;76;21118;-70
2022/04/17 11:06:32;;;;;;;2.67;1.52;;;;;;;22.38;42.66;101109.60;1891682;76;21050;-69
2022/04/17 11:09:16;;;;;;;5.72;1.77;;;;;;;22.45;41.94;101104.09;1891901;75;21534;-71
2022/04/17 11:11:45;;;;;;;6.55;1.82;;;;;;;22.57;41.69;101112.44;1888025;76;21559;-70
2022/04/17 11:14:18;;;;;;;10.28;2.08;;;;;;;22.52;41.22;101113.30;1891750;76;21014;-69
2022/04/17 11:16:53;;;;;;;6.35;1.82;;;;;;;22.42;41.44;101107.86;1892192;75;21136;-66
2022/04/17 11:19:24;;;;;;;2.55;1.40;;;;;;;22.30;41.43;101107.06;1860501;77;21065;-67
2022/04/17 11:21:56;;;;;;;4.50;1.50;;;;;;;22.13;40.74;101101.73;1860674;77;21082;-69
2022/04/17 11:24:25;;;;;;;6.45;1.60;;;;;;;21.90;40.86;101094.21;1888428;76;21113;-70
2022/04/17 11:26:59;;;;;;;3.02;1.50;;;;;;;21.70;40.63;101086.44;1891979;76;21042;-69
2022/04/17 11:29:43;;;;;;;4.33;1.67;;;;;;;21.56;40.88;101084.88;1892020;76;21047;-68
2022/04/17 11:32:21;;;;;;;3.17;1.60;;;;;;;21.54;41.24;101080.14;1891971;74;21075;-68
2022/04/17 11:34:53;;;;;;;3.72;1.25;;;;;;;21.49;41.36;101075.62;1893479;75;20986;-68
2022/04/17 11:37:23;;;;;;;3.37;1.60;;;;;;;21.51;41.41;101072.34;1901778;75;21025;-68
2022/04/17 11:39:53;;;;;;;7.60;1.47;;;;;;;21.51;41.47;101063.45;1859648;77;21500;-68
2022/04/17 11:42:22;;;;;;;3.83;1.17;;;;;;;21.53;41.47;101061.50;1868403;75;21059;-68
2022/04/17 11:44:51;;;;;;;2.58;1.80;;;;;;;21.52;41.45;101057.11;1815861;79;21509;-65
2022/04/17 11:47:22;;;;;;;1.12;1.00;;;;;;;21.47;41.40;101042.76;1816043;79;21107;-65
2022/04/17 11:49:50;;;;;;;9.05;1.95;;;;;;;21.39;41.32;101038.45;1813673;79;21063;-64
2022/04/17 11:52:28;;;;;;;5.78;1.70;;;;;;;21.32;41.38;101037.23;1815785;79;21086;-67
2022/04/17 11:54:55;;;;;;;3.40;2.05;;;;;;;21.29;41.46;101032.98;1814879;79;21075;-67
2022/04/17 11:57:23;;;;;;;3.95;1.50;;;;;;;21.24;41.51;101027.63;1815792;79;21038;-64
2022/04/17 12:00:00;;;;;;;6.45;1.50;;;;;;;21.37;41.61;101037.73;1816020;79;21062;-64